Time;durP1;ratioP1;P1;durP2;ratioP2;P2;SDS_P1;SDS_P2;PMS_P1;PMS_P2;Temp;Humidity;BMP_temperature;BMP_pressure;BME280_temperature;BME280_humidity;BME280_pressure;Samples;Min_cycle;Max_cycle;Signal;HPM_P1;HPM_P2
2022/10/18 00:01:33;;;;;;;;;23.00;21.33;;;;;;;;5091782;27;45433;-79
2022/10/18 00:03:58;;;;;;;;;22.00;21.00;;;;;;;;5088868;27;45430;-78
2022/10/18 00:06:23;;;;;;;;;22.67;21.00;;;;;;;;5090027;27;45327;-79
2022/10/18 00:08:48;;;;;;;;;21.67;20.33;;;;;;;;5090555;27;45523;-79
2022/10/18 00:11:13;;;;;;;;;19.67;19.67;;;;;;;;5082575;27;45329;-79
2022/10/18 00:13:39;;;;;;;;;21.67;19.33;;;;;;;;5092646;27;45371;-79
2022/10/18 00:16:08;;;;;;;;;24.33;21.67;;;;;;;;5093693;27;45739;-79
2022/10/18 00:18:33;;;;;;;;;24.00;22.67;;;;;;;;5097782;27;45340;-79
2022/10/18 00:21:03;;;;;;;;;22.33;20.67;;;;;;;;5095817;27;45402;-78
2022/10/18 00:23:29;;;;;;;;;21.67;21.33;;;;;;;;5096496;27;45298;-79
2022/10/18 00:26:21;;;;;;;;;25.00;20.00;;;;;;;;5088214;27;45486;-79
2022/10/18 00:28:49;;;;;;;;;25.33;20.67;;;;;;;;5091088;27;45524;-79
2022/10/18 00:31:34;;;;;;;;;22.00;20.00;;;;;;;;5090972;27;45464;-79
2022/10/18 00:34:00;;;;;;;;;27.67;23.33;;;;;;;;5071834;27;45292;-79
2022/10/18 00:36:27;;;;;;;;;23.00;21.00;;;;;;;;5082257;27;45789;-79
2022/10/18 00:38:52;;;;;;;;;25.00;22.00;;;;;;;;5083986;27;45698;-79
2022/10/18 00:41:20;;;;;;;;;20.00;19.00;;;;;;;;5087449;27;46241;-79
2022/10/18 00:43:55;;;;;;;;;21.00;20.00;;;;;;;;5082878;27;45297;-79
2022/10/18 00:46:21;;;;;;;;;23.33;20.67;;;;;;;;5065684;28;45503;-79
2022/10/18 00:48:47;;;;;;;;;24.67;23.33;;;;;;;;5088317;27;45372;-79
2022/10/18 00:51:12;;;;;;;;;25.00;22.33;;;;;;;;5092286;27;45744;-79
2022/10/18 00:53:38;;;;;;;;;28.33;25.00;;;;;;;;5082011;27;45351;-79
2022/10/18 00:56:04;;;;;;;;;20.67;19.33;;;;;;;;5093342;27;45273;-79
2022/10/18 00:58:29;;;;;;;;;29.33;24.33;;;;;;;;5079887;27;45971;-78
2022/10/18 01:00:55;;;;;;;;;23.33;20.67;;;;;;;;5094746;27;45435;-79
2022/10/18 01:03:20;;;;;;;;;28.67;23.67;;;;;;;;5089670;27;45292;-79
2022/10/18 01:05:46;;;;;;;;;23.00;21.00;;;;;;;;5077894;27;45550;-79
2022/10/18 01:08:17;;;;;;;;;22.00;20.00;;;;;;;;5098938;27;45523;-79
2022/10/18 01:10:53;;;;;;;;;23.33;22.00;;;;;;;;5090574;27;46348;-79
2022/10/18 01:13:37;;;;;;;;;24.00;23.00;;;;;;;;5089752;27;45383;-79
2022/10/18 01:16:12;;;;;;;;;23.00;23.00;;;;;;;;5093587;27;45477;-79
2022/10/18 01:18:43;;;;;;;;;30.67;25.67;;;;;;;;5088723;27;45581;-79
2022/10/18 01:21:23;;;;;;;;;19.33;18.67;;;;;;;;5088492;27;45391;-79
2022/10/18 01:24:07;;;;;;;;;26.67;22.00;;;;;;;;5090432;27;45344;-79
2022/10/18 01:26:39;;;;;;;;;21.00;19.33;;;;;;;;5094433;27;45354;-79
2022/10/18 01:29:04;;;;;;;;;29.33;24.67;;;;;;;;5089718;27;45578;-79
2022/10/18 01:31:31;;;;;;;;;26.67;23.67;;;;;;;;5088403;27;45212;-79
2022/10/18 01:33:58;;;;;;;;;25.67;25.67;;;;;;;;5091717;27;45406;-79
2022/10/18 01:36:34;;;;;;;;;25.33;21.67;;;;;;;;5089024;27;45355;-79
2022/10/18 01:39:01;;;;;;;;;19.33;19.00;;;;;;;;5081715;27;47189;-79
2022/10/18 01:41:27;;;;;;;;;21.00;21.00;;;;;;;;5095278;27;45489;-79
2022/10/18 01:43:56;;;;;;;;;22.00;20.00;;;;;;;;5097058;27;45205;-79
2022/10/18 01:46:23;;;;;;;;;22.00;21.67;;;;;;;;5095386;27;45332;-79
2022/10/18 01:48:48;;;;;;;;;26.00;22.33;;;;;;;;5072861;27;46238;-79
2022/10/18 01:51:14;;;;;;;;;35.33;29.33;;;;;;;;5092119;27;45359;-79
2022/10/18 01:53:39;;;;;;;;;25.33;23.00;;;;;;;;5079882;27;45332;-79
2022/10/18 01:56:13;;;;;;;;;25.67;24.00;;;;;;;;5088236;27;45422;-79
2022/10/18 01:58:44;;;;;;;;;27.33;23.67;;;;;;;;5089868;27;45259;-79
2022/10/18 02:01:16;;;;;;;;;26.00;25.00;;;;;;;;5089849;27;46788;-79
2022/10/18 02:03:44;;;;;;;;;21.33;21.33;;;;;;;;5079967;27;45357;-79
2022/10/18 02:06:17;;;;;;;;;24.67;23.67;;;;;;;;5090225;27;45297;-79
2022/10/18 02:08:42;;;;;;;;;27.00;25.33;;;;;;;;5099858;27;45276;-79
2022/10/18 02:11:09;;;;;;;;;28.67;25.33;;;;;;;;5089217;27;45403;-79
2022/10/18 02:13:52;;;;;;;;;25.00;24.00;;;;;;;;5095900;27;45796;-79
2022/10/18 02:16:30;;;;;;;;;26.00;24.33;;;;;;;;5072257;28;45293;-79
2022/10/18 02:19:01;;;;;;;;;22.33;22.33;;;;;;;;5096032;27;45346;-79
2022/10/18 02:21:28;;;;;;;;;31.67;27.33;;;;;;;;5088310;27;46223;-79
2022/10/18 02:23:54;;;;;;;;;23.00;21.33;;;;;;;;5099151;27;45241;-79
2022/10/18 02:26:19;;;;;;;;;28.67;25.33;;;;;;;;5094651;27;45407;-80
2022/10/18 02:28:45;;;;;;;;;28.00;23.00;;;;;;;;5081471;27;47162;-79
2022/10/18 02:31:16;;;;;;;;;26.67;23.33;;;;;;;;5089182;27;45300;-79
2022/10/18 02:33:44;;;;;;;;;29.33;26.33;;;;;;;;5097262;27;45379;-79
2022/10/18 02:36:14;;;;;;;;;27.00;24.67;;;;;;;;5070181;27;45288;-79
2022/10/18 02:38:40;;;;;;;;;29.67;24.33;;;;;;;;5086428;27;45271;-79
2022/10/18 02:41:05;;;;;;;;;30.33;27.00;;;;;;;;5087525;27;45507;-80
2022/10/18 02:43:31;;;;;;;;;30.67;26.00;;;;;;;;5090649;27;45331;-79
2022/10/18 02:45:56;;;;;;;;;24.67;21.33;;;;;;;;5089624;27;45942;-78
2022/10/18 02:48:21;;;;;;;;;34.67;27.67;;;;;;;;5078663;27;45961;-79
2022/10/18 02:50:46;;;;;;;;;29.33;26.67;;;;;;;;5089444;27;46262;-79
2022/10/18 02:53:11;;;;;;;;;29.00;27.67;;;;;;;;5087253;27;45251;-80
2022/10/18 02:55:37;;;;;;;;;27.00;26.33;;;;;;;;5090859;27;45477;-79
2022/10/18 02:58:02;;;;;;;;;33.00;27.33;;;;;;;;5069168;27;45586;-79
2022/10/18 03:00:27;;;;;;;;;31.33;27.67;;;;;;;;5084896;27;46880;-79
2022/10/18 03:02:52;;;;;;;;;29.67;28.00;;;;;;;;5082556;27;45261;-79
2022/10/18 03:05:18;;;;;;;;;32.00;29.67;;;;;;;;5093684;27;45472;-79
2022/10/18 03:07:43;;;;;;;;;30.00;29.00;;;;;;;;5092939;27;45259;-79
2022/10/18 03:10:08;;;;;;;;;26.00;26.00;;;;;;;;5084331;27;45541;-79
2022/10/18 03:12:33;;;;;;;;;30.00;27.00;;;;;;;;5091264;27;45404;-79
2022/10/18 03:14:59;;;;;;;;;24.33;22.67;;;;;;;;5085914;27;45249;-79
2022/10/18 03:17:24;;;;;;;;;27.33;26.00;;;;;;;;5085874;27;45410;-78
2022/10/18 03:19:49;;;;;;;;;26.67;24.67;;;;;;;;5071095;27;45896;-77
2022/10/18 03:22:14;;;;;;;;;35.33;27.00;;;;;;;;5086643;27;45335;-77
2022/10/18 03:24:39;;;;;;;;;30.33;29.33;;;;;;;;5075084;27;45268;-78
2022/10/18 03:27:05;;;;;;;;;29.67;25.67;;;;;;;;5092850;27;45350;-77
2022/10/18 03:29:30;;;;;;;;;29.33;27.00;;;;;;;;5090675;27;45423;-77
2022/10/18 03:31:55;;;;;;;;;28.67;26.00;;;;;;;;5085879;27;45419;-78
2022/10/18 03:34:20;;;;;;;;;26.33;25.33;;;;;;;;5097626;27;45537;-78
2022/10/18 03:36:45;;;;;;;;;31.00;28.00;;;;;;;;5066564;28;46204;-77
2022/10/18 03:39:11;;;;;;;;;30.33;28.00;;;;;;;;5093877;27;46274;-77
2022/10/18 03:41:36;;;;;;;;;29.00;28.00;;;;;;;;5081746;27;45320;-77
2022/10/18 03:44:01;;;;;;;;;30.67;27.00;;;;;;;;5075819;27;45415;-77
2022/10/18 03:46:27;;;;;;;;;28.33;24.33;;;;;;;;5094273;27;45205;-77
2022/10/18 03:48:52;;;;;;;;;29.33;28.00;;;;;;;;5097734;27;45609;-77
2022/10/18 03:51:17;;;;;;;;;26.00;23.67;;;;;;;;5093087;27;45283;-77
2022/10/18 03:53:42;;;;;;;;;32.67;30.00;;;;;;;;5083010;27;45315;-77
2022/10/18 03:56:09;;;;;;;;;25.67;24.33;;;;;;;;5091955;27;45244;-77
2022/10/18 03:58:34;;;;;;;;;27.67;26.67;;;;;;;;5086400;27;45462;-77
2022/10/18 04:00:59;;;;;;;;;33.00;29.00;;;;;;;;5092054;27;45367;-77
2022/10/18 04:03:24;;;;;;;;;29.33;27.00;;;;;;;;5093703;27;45531;-77
2022/10/18 04:05:50;;;;;;;;;25.67;24.33;;;;;;;;5076886;27;45458;-77
2022/10/18 04:08:15;;;;;;;;;29.00;27.33;;;;;;;;5088197;27;45351;-77
2022/10/18 04:10:41;;;;;;;;;27.00;23.67;;;;;;;;5068244;27;45392;-77
2022/10/18 04:13:06;;;;;;;;;30.00;29.33;;;;;;;;5090563;27;45335;-78
2022/10/18 04:15:31;;;;;;;;;32.00;28.00;;;;;;;;5088612;27;45285;-79
2022/10/18 04:17:57;;;;;;;;;29.33;28.33;;;;;;;;5088909;27;45356;-78
2022/10/18 04:20:23;;;;;;;;;25.00;25.00;;;;;;;;5091562;27;45454;-78
2022/10/18 04:22:48;;;;;;;;;28.33;22.33;;;;;;;;5090354;27;45447;-78
2022/10/18 04:25:14;;;;;;;;;26.67;26.67;;;;;;;;5094448;27;45256;-78
2022/10/18 04:27:39;;;;;;;;;24.00;23.67;;;;;;;;5093312;27;45398;-78
2022/10/18 04:30:04;;;;;;;;;30.67;26.00;;;;;;;;5097233;27;45303;-78
2022/10/18 04:32:30;;;;;;;;;21.33;21.00;;;;;;;;5089659;27;45332;-78
2022/10/18 04:34:55;;;;;;;;;26.67;26.00;;;;;;;;5084330;27;45320;-79
2022/10/18 04:37:20;;;;;;;;;32.67;27.00;;;;;;;;5086142;27;46328;-79
2022/10/18 04:39:47;;;;;;;;;30.33;26.33;;;;;;;;5065444;27;45235;-79
2022/10/18 04:42:12;;;;;;;;;32.00;27.67;;;;;;;;5093392;27;45271;-78
2022/10/18 04:44:38;;;;;;;;;24.00;22.33;;;;;;;;5085130;27;45331;-79
2022/10/18 04:47:03;;;;;;;;;29.67;26.00;;;;;;;;5086057;27;45419;-79
2022/10/18 04:49:28;;;;;;;;;28.33;25.33;;;;;;;;5091705;27;45359;-79
2022/10/18 04:51:53;;;;;;;;;28.33;25.00;;;;;;;;5089502;27;45423;-78
2022/10/18 04:54:19;;;;;;;;;34.00;28.00;;;;;;;;5086180;27;45394;-79
2022/10/18 04:56:44;;;;;;;;;30.33;27.00;;;;;;;;5096135;27;46380;-79
2022/10/18 04:59:09;;;;;;;;;28.00;28.00;;;;;;;;5095152;27;45317;-79
2022/10/18 05:01:34;;;;;;;;;28.33;26.67;;;;;;;;5091492;27;45233;-79
2022/10/18 05:03:59;;;;;;;;;32.00;28.33;;;;;;;;5098570;27;45317;-79
2022/10/18 05:06:24;;;;;;;;;34.33;27.33;;;;;;;;5090763;27;46642;-79
2022/10/18 05:08:50;;;;;;;;;31.67;28.33;;;;;;;;5091599;27;45321;-79
2022/10/18 05:11:15;;;;;;;;;38.67;31.67;;;;;;;;5068854;28;45591;-79
2022/10/18 05:13:40;;;;;;;;;28.33;28.33;;;;;;;;5093610;27;45264;-79
2022/10/18 05:16:06;;;;;;;;;33.33;27.33;;;;;;;;5089653;27;45453;-79
2022/10/18 05:18:31;;;;;;;;;29.67;28.33;;;;;;;;5093569;27;45450;-79
2022/10/18 05:20:56;;;;;;;;;30.00;27.33;;;;;;;;5089656;27;45289;-79
2022/10/18 05:23:22;;;;;;;;;26.00;25.33;;;;;;;;5081607;27;46410;-79
2022/10/18 05:25:47;;;;;;;;;31.67;24.33;;;;;;;;5077089;27;47243;-79
2022/10/18 05:28:13;;;;;;;;;31.67;30.00;;;;;;;;5100016;27;45517;-78
2022/10/18 05:30:39;;;;;;;;;27.33;24.00;;;;;;;;5093942;27;45614;-79
2022/10/18 05:33:04;;;;;;;;;34.00;29.33;;;;;;;;5072892;27;46012;-79
2022/10/18 05:35:29;;;;;;;;;27.00;25.00;;;;;;;;5088653;27;45953;-79
2022/10/18 05:37:55;;;;;;;;;28.33;26.33;;;;;;;;5080826;27;45326;-79
2022/10/18 05:40:20;;;;;;;;;27.00;25.67;;;;;;;;5088603;27;45272;-78
2022/10/18 05:42:45;;;;;;;;;27.00;24.67;;;;;;;;5089174;27;45539;-79
2022/10/18 05:45:10;;;;;;;;;29.33;26.67;;;;;;;;5079674;27;46508;-78
2022/10/18 05:47:35;;;;;;;;;33.67;29.00;;;;;;;;5091288;27;45221;-78
2022/10/18 05:50:01;;;;;;;;;27.00;26.00;;;;;;;;5090580;27;45327;-77
2022/10/18 05:52:26;;;;;;;;;28.00;24.33;;;;;;;;5089854;27;44761;-79
2022/10/18 05:54:51;;;;;;;;;31.00;25.33;;;;;;;;5091078;27;46544;-80
2022/10/18 05:57:16;;;;;;;;;24.67;24.67;;;;;;;;5095893;27;45212;-79
2022/10/18 05:59:42;;;;;;;;;26.33;23.33;;;;;;;;5080364;27;45446;-79
2022/10/18 06:02:08;;;;;;;;;22.33;21.67;;;;;;;;5090693;27;45364;-79
2022/10/18 06:04:34;;;;;;;;;24.00;23.00;;;;;;;;5081651;27;46221;-80
2022/10/18 06:06:59;;;;;;;;;21.00;20.00;;;;;;;;5087846;27;45359;-79
2022/10/18 06:09:24;;;;;;;;;28.00;22.00;;;;;;;;5085369;27;45360;-80
2022/10/18 06:11:50;;;;;;;;;21.67;19.67;;;;;;;;5095969;27;45284;-78
2022/10/18 06:14:15;;;;;;;;;21.67;20.00;;;;;;;;5091125;27;46059;-79
2022/10/18 06:16:40;;;;;;;;;24.67;20.67;;;;;;;;5092666;27;45319;-77
2022/10/18 06:19:05;;;;;;;;;21.00;20.33;;;;;;;;5095815;27;45592;-79
2022/10/18 06:21:30;;;;;;;;;22.67;21.67;;;;;;;;5091457;27;45244;-80
2022/10/18 06:23:57;;;;;;;;;21.00;19.33;;;;;;;;5089866;27;45367;-80
2022/10/18 06:26:22;;;;;;;;;19.33;17.67;;;;;;;;5076384;27;45308;-78
2022/10/18 06:28:48;;;;;;;;;23.33;21.67;;;;;;;;5100943;27;45316;-79
2022/10/18 06:31:13;;;;;;;;;21.67;19.67;;;;;;;;5089413;27;45256;-78
2022/10/18 06:33:39;;;;;;;;;25.33;20.33;;;;;;;;5092949;27;46178;-76
2022/10/18 06:36:05;;;;;;;;;24.00;23.00;;;;;;;;5074367;27;45288;-77
2022/10/18 06:38:31;;;;;;;;;19.67;18.33;;;;;;;;5090869;27;45174;-79
2022/10/18 06:40:57;;;;;;;;;17.00;16.00;;;;;;;;5084891;27;45868;-78
2022/10/18 06:43:22;;;;;;;;;22.33;21.00;;;;;;;;5088883;27;45265;-78
2022/10/18 06:45:48;;;;;;;;;22.00;19.67;;;;;;;;5072403;27;45173;-80
2022/10/18 06:48:13;;;;;;;;;20.33;18.67;;;;;;;;5069038;28;45205;-79
2022/10/18 06:50:38;;;;;;;;;17.00;17.00;;;;;;;;5090131;27;45399;-79
2022/10/18 06:53:05;;;;;;;;;23.67;18.67;;;;;;;;5101104;27;45429;-80
2022/10/18 06:55:30;;;;;;;;;20.33;19.00;;;;;;;;5093516;27;45319;-80
2022/10/18 06:57:55;;;;;;;;;20.67;20.33;;;;;;;;5096878;27;45292;-79
2022/10/18 07:00:20;;;;;;;;;20.67;18.33;;;;;;;;5095410;27;45469;-79
2022/10/18 07:02:46;;;;;;;;;19.00;18.00;;;;;;;;5091870;27;46131;-79
2022/10/18 07:05:11;;;;;;;;;23.33;19.00;;;;;;;;5071727;27;45288;-80
2022/10/18 07:07:37;;;;;;;;;17.33;17.00;;;;;;;;5091709;27;45284;-79
2022/10/18 07:10:02;;;;;;;;;24.00;20.00;;;;;;;;5089735;27;45671;-81
2022/10/18 07:12:27;;;;;;;;;19.00;18.00;;;;;;;;5089950;27;45282;-79
2022/10/18 07:14:53;;;;;;;;;26.67;20.67;;;;;;;;5086946;27;45332;-79
2022/10/18 07:17:19;;;;;;;;;18.33;18.33;;;;;;;;5085844;27;45263;-79
2022/10/18 07:19:44;;;;;;;;;20.67;20.67;;;;;;;;5094145;27;45451;-79
2022/10/18 07:22:09;;;;;;;;;24.33;19.67;;;;;;;;5089096;27;45240;-79
2022/10/18 07:24:34;;;;;;;;;24.00;20.67;;;;;;;;5085513;27;45370;-79
2022/10/18 07:27:00;;;;;;;;;27.00;21.67;;;;;;;;5091687;27;45568;-79
2022/10/18 07:29:25;;;;;;;;;24.67;21.33;;;;;;;;5098061;27;45307;-79
2022/10/18 07:31:50;;;;;;;;;20.67;20.33;;;;;;;;5084510;27;45428;-79
2022/10/18 07:34:15;;;;;;;;;21.67;21.00;;;;;;;;5098252;27;45421;-79
2022/10/18 07:36:40;;;;;;;;;22.00;21.33;;;;;;;;5082110;27;45654;-79
2022/10/18 07:39:06;;;;;;;;;19.33;19.00;;;;;;;;5083946;27;45387;-79
2022/10/18 07:41:32;;;;;;;;;26.33;23.00;;;;;;;;5087874;27;46388;-80
2022/10/18 07:43:58;;;;;;;;;22.00;20.33;;;;;;;;5073383;27;45388;-79
2022/10/18 07:46:23;;;;;;;;;16.00;16.00;;;;;;;;5082106;27;44740;-80
2022/10/18 07:48:49;;;;;;;;;17.67;17.00;;;;;;;;5090933;27;45536;-80
2022/10/18 07:51:14;;;;;;;;;18.67;18.33;;;;;;;;5091464;27;45475;-77
2022/10/18 07:53:40;;;;;;;;;19.67;19.33;;;;;;;;5092919;27;45526;-79
2022/10/18 07:56:06;;;;;;;;;18.67;18.00;;;;;;;;5090713;27;45896;-79
2022/10/18 07:58:32;;;;;;;;;20.67;15.67;;;;;;;;5095454;27;45457;-80
2022/10/18 08:01:00;;;;;;;;;17.67;17.67;;;;;;;;5085359;27;45346;-78
2022/10/18 08:03:25;;;;;;;;;19.67;17.00;;;;;;;;5093544;27;45219;-76
2022/10/18 08:05:52;;;;;;;;;22.67;19.33;;;;;;;;5094881;27;45275;-76
2022/10/18 08:08:17;;;;;;;;;22.67;19.33;;;;;;;;5084475;27;45392;-75
2022/10/18 08:10:43;;;;;;;;;20.00;17.33;;;;;;;;5073303;27;46912;-77
2022/10/18 08:13:08;;;;;;;;;25.33;20.67;;;;;;;;5098679;27;45481;-77
2022/10/18 08:15:33;;;;;;;;;22.33;19.67;;;;;;;;5074885;27;45371;-77
2022/10/18 08:17:58;;;;;;;;;21.33;18.33;;;;;;;;5086240;27;45337;-78
2022/10/18 08:20:23;;;;;;;;;19.00;16.33;;;;;;;;5094965;27;45591;-77
2022/10/18 08:22:49;;;;;;;;;23.00;18.00;;;;;;;;5070749;27;45481;-77
2022/10/18 08:25:15;;;;;;;;;20.33;19.67;;;;;;;;5086487;27;45327;-77
2022/10/18 08:27:40;;;;;;;;;15.33;14.00;;;;;;;;5093111;27;45422;-77
2022/10/18 08:30:08;;;;;;;;;19.67;17.00;;;;;;;;5083637;27;45544;-77
2022/10/18 08:32:33;;;;;;;;;15.33;12.33;;;;;;;;5081885;27;45249;-77
2022/10/18 08:34:58;;;;;;;;;23.33;19.00;;;;;;;;5071999;27;45260;-77
2022/10/18 08:37:23;;;;;;;;;20.33;18.00;;;;;;;;5095228;27;45407;-77
2022/10/18 08:39:48;;;;;;;;;18.00;18.00;;;;;;;;5085723;27;46207;-77
2022/10/18 08:42:27;;;;;;;;;18.33;13.33;;;;;;;;5095461;27;45228;-77
2022/10/18 08:44:53;;;;;;;;;22.67;19.33;;;;;;;;5098219;27;45398;-77
2022/10/18 08:47:28;;;;;;;;;20.67;17.67;;;;;;;;5094622;27;45388;-77
2022/10/18 08:50:01;;;;;;;;;14.00;12.67;;;;;;;;5097841;27;45439;-77
2022/10/18 08:52:32;;;;;;;;;15.00;15.00;;;;;;;;5092283;27;45407;-76
2022/10/18 08:55:00;;;;;;;;;13.67;12.67;;;;;;;;5080305;27;45534;-77
2022/10/18 08:57:26;;;;;;;;;16.00;15.00;;;;;;;;5087403;27;45256;-76
2022/10/18 08:59:51;;;;;;;;;16.67;16.33;;;;;;;;5079160;27;45167;-76
2022/10/18 09:02:19;;;;;;;;;15.67;15.00;;;;;;;;5094349;27;45283;-76
2022/10/18 09:04:47;;;;;;;;;17.00;16.00;;;;;;;;5071859;27;45332;-76
2022/10/18 09:07:22;;;;;;;;;19.00;16.67;;;;;;;;5092989;27;45354;-76
2022/10/18 09:09:56;;;;;;;;;18.33;16.33;;;;;;;;5083589;27;45607;-76
2022/10/18 09:12:24;;;;;;;;;13.67;13.67;;;;;;;;5094422;27;45430;-76
2022/10/18 09:15:00;;;;;;;;;15.00;14.00;;;;;;;;5094107;27;45453;-75
2022/10/18 09:17:31;;;;;;;;;14.00;14.00;;;;;;;;5084535;27;45960;-76
2022/10/18 09:19:56;;;;;;;;;20.00;16.33;;;;;;;;5075735;27;46825;-76
2022/10/18 09:22:36;;;;;;;;;29.00;25.33;;;;;;;;5087482;27;45489;-76
2022/10/18 09:25:05;;;;;;;;;43.33;35.67;;;;;;;;5083240;27;45218;-76
2022/10/18 09:27:39;;;;;;;;;18.00;17.00;;;;;;;;5093717;27;45586;-76
2022/10/18 09:30:19;;;;;;;;;17.00;15.33;;;;;;;;5087495;27;45787;-75
2022/10/18 09:32:49;;;;;;;;;18.00;12.33;;;;;;;;5085016;27;45400;-75
2022/10/18 09:35:23;;;;;;;;;22.33;19.67;;;;;;;;5085735;27;45533;-75
2022/10/18 09:37:49;;;;;;;;;16.67;16.00;;;;;;;;5071262;28;45806;-75
2022/10/18 09:40:18;;;;;;;;;15.00;13.00;;;;;;;;5086648;27;45443;-75
2022/10/18 09:42:54;;;;;;;;;14.33;12.67;;;;;;;;5094333;27;45374;-75
2022/10/18 09:45:19;;;;;;;;;13.33;10.00;;;;;;;;5093231;27;45234;-75
2022/10/18 09:47:47;;;;;;;;;18.00;18.00;;;;;;;;5091884;27;45927;-75
2022/10/18 09:50:18;;;;;;;;;13.67;12.67;;;;;;;;5096891;27;46196;-76
2022/10/18 09:52:47;;;;;;;;;14.00;13.67;;;;;;;;5091851;27;45470;-75
2022/10/18 09:55:17;;;;;;;;;16.00;15.67;;;;;;;;5092627;27;45307;-75
2022/10/18 09:57:45;;;;;;;;;19.33;16.00;;;;;;;;5090319;27;45412;-75
2022/10/18 10:00:23;;;;;;;;;13.00;13.00;;;;;;;;5087135;27;45514;-74
2022/10/18 10:02:48;;;;;;;;;14.33;14.33;;;;;;;;5094602;27;45216;-75
2022/10/18 10:05:13;;;;;;;;;26.00;23.33;;;;;;;;5088074;27;45304;-75
2022/10/18 10:07:43;;;;;;;;;18.67;16.33;;;;;;;;5097720;27;45506;-75
2022/10/18 10:10:15;;;;;;;;;21.00;17.33;;;;;;;;5090568;27;45451;-75
2022/10/18 10:12:40;;;;;;;;;17.00;16.00;;;;;;;;5090952;27;45782;-75
2022/10/18 10:15:11;;;;;;;;;18.00;16.67;;;;;;;;5092120;27;45347;-75
2022/10/18 10:17:36;;;;;;;;;20.67;17.00;;;;;;;;5090929;27;45235;-75
2022/10/18 10:20:27;;;;;;;;;12.67;11.67;;;;;;;;5099481;27;45975;-75
2022/10/18 10:22:53;;;;;;;;;11.00;10.00;;;;;;;;5092702;27;45422;-75
2022/10/18 10:25:25;;;;;;;;;13.67;11.00;;;;;;;;5080167;27;45400;-75
2022/10/18 10:27:51;;;;;;;;;11.00;10.00;;;;;;;;5095436;27;45801;-75
2022/10/18 10:30:24;;;;;;;;;11.67;10.67;;;;;;;;5077570;27;46697;-75
2022/10/18 10:32:50;;;;;;;;;12.67;11.33;;;;;;;;5069040;27;45421;-75
2022/10/18 10:35:35;;;;;;;;;13.33;12.33;;;;;;;;5099164;27;45223;-75
2022/10/18 10:38:01;;;;;;;;;10.67;10.33;;;;;;;;5076187;28;47280;-74
2022/10/18 10:40:27;;;;;;;;;10.00;10.00;;;;;;;;5084578;27;45363;-75
2022/10/18 10:42:52;;;;;;;;;12.00;10.67;;;;;;;;5078193;27;45350;-75
2022/10/18 10:45:19;;;;;;;;;12.00;9.00;;;;;;;;5072689;27;45639;-76
2022/10/18 10:47:44;;;;;;;;;12.67;10.67;;;;;;;;5083665;27;45414;-75
2022/10/18 10:50:10;;;;;;;;;15.67;14.33;;;;;;;;5087987;27;45353;-75
2022/10/18 10:52:36;;;;;;;;;12.33;11.00;;;;;;;;5088976;27;45241;-75
2022/10/18 10:55:02;;;;;;;;;9.67;9.67;;;;;;;;5089297;27;45252;-75
2022/10/18 10:57:28;;;;;;;;;10.00;10.00;;;;;;;;5092220;27;45573;-75
2022/10/18 10:59:54;;;;;;;;;10.33;9.67;;;;;;;;5094910;27;46232;-75
2022/10/18 11:02:21;;;;;;;;;18.00;13.67;;;;;;;;5095632;27;45418;-75
2022/10/18 11:04:48;;;;;;;;;16.00;13.00;;;;;;;;5081344;27;45319;-75
2022/10/18 11:07:24;;;;;;;;;15.00;13.00;;;;;;;;5090257;27;45567;-75
2022/10/18 11:09:49;;;;;;;;;10.33;10.33;;;;;;;;5089266;27;46776;-75
2022/10/18 11:12:27;;;;;;;;;11.00;10.33;;;;;;;;5092449;27;45244;-75
2022/10/18 11:15:01;;;;;;;;;10.00;10.00;;;;;;;;5096013;27;45323;-75
2022/10/18 11:17:31;;;;;;;;;9.33;8.67;;;;;;;;5094781;27;45277;-74
2022/10/18 11:20:15;;;;;;;;;9.00;9.00;;;;;;;;5097598;27;45480;-76
2022/10/18 11:22:40;;;;;;;;;11.00;10.33;;;;;;;;5091193;27;45285;-74
2022/10/18 11:25:05;;;;;;;;;12.67;10.00;;;;;;;;5084400;27;44878;-75
2022/10/18 11:27:30;;;;;;;;;11.67;10.00;;;;;;;;5091631;27;45528;-74
2022/10/18 11:30:05;;;;;;;;;10.00;10.00;;;;;;;;5067743;27;47080;-74
2022/10/18 11:33:03;;;;;;;;;9.67;8.67;;;;;;;;5081574;27;45327;-74
2022/10/18 11:35:38;;;;;;;;;10.33;9.67;;;;;;;;5066972;27;45457;-74
2022/10/18 11:38:07;;;;;;;;;10.33;9.33;;;;;;;;5097980;27;45444;-74
2022/10/18 11:40:34;;;;;;;;;11.00;11.00;;;;;;;;5093889;27;45433;-74
2022/10/18 11:43:00;;;;;;;;;7.00;4.00;;;;;;;;5083963;27;45424;-74
2022/10/18 11:45:37;;;;;;;;;7.33;4.67;;;;;;;;5093347;27;45488;-74
2022/10/18 11:48:31;;;;;;;;;4.25;4.25;;;;;;;;5088384;27;45320;-74
2022/10/18 11:51:02;;;;;;;;;4.00;4.00;;;;;;;;5092759;27;47296;-74
2022/10/18 11:53:40;;;;;;;;;3.50;3.50;;;;;;;;5098849;27;45264;-73
2022/10/18 11:56:09;;;;;;;;;3.50;3.50;;;;;;;;5084613;27;46936;-74
2022/10/18 11:58:37;;;;;;;;;4.25;4.25;;;;;;;;5080954;27;45536;-73
2022/10/18 12:01:19;;;;;;;;;3.25;3.25;;;;;;;;5075001;27;46725;-74
2022/10/18 12:03:44;;;;;;;;;4.50;3.00;;;;;;;;5085338;27;45395;-74
2022/10/18 12:06:15;;;;;;;;;3.75;3.75;;;;;;;;5083440;27;45458;-74
2022/10/18 12:08:44;;;;;;;;;2.75;2.75;;;;;;;;5076635;27;45533;-74
2022/10/18 12:11:20;;;;;;;;;2.75;2.75;;;;;;;;5092322;27;46369;-74
2022/10/18 12:13:48;;;;;;;;;4.00;3.00;;;;;;;;5091063;27;45336;-74
2022/10/18 12:16:14;;;;;;;;;2.50;1.75;;;;;;;;5088090;27;45414;-74
2022/10/18 12:18:46;;;;;;;;;4.25;3.75;;;;;;;;5094560;27;45364;-74
2022/10/18 12:21:11;;;;;;;;;5.00;3.75;;;;;;;;5070031;27;47068;-74
2022/10/18 12:23:41;;;;;;;;;4.50;3.00;;;;;;;;5097894;27;45350;-74
2022/10/18 12:26:07;;;;;;;;;4.75;3.75;;;;;;;;5092200;27;46908;-74
2022/10/18 12:28:51;;;;;;;;;1.75;1.75;;;;;;;;5085394;27;45308;-74
2022/10/18 12:31:28;;;;;;;;;3.75;2.25;;;;;;;;5087417;27;45485;-74
2022/10/18 12:33:57;;;;;;;;;2.00;2.00;;;;;;;;5086827;27;45366;-74
2022/10/18 12:36:43;;;;;;;;;1.25;1.25;;;;;;;;5090705;27;45565;-74
2022/10/18 12:39:11;;;;;;;;;2.75;2.75;;;;;;;;5083945;27;45277;-74
2022/10/18 12:41:36;;;;;;;;;1.25;1.00;;;;;;;;5090281;27;45693;-73
2022/10/18 12:44:04;;;;;;;;;1.75;1.75;;;;;;;;5087751;27;45512;-75
2022/10/18 12:46:47;;;;;;;;;2.75;2.75;;;;;;;;5092815;27;45395;-74
2022/10/18 12:49:13;;;;;;;;;3.00;3.00;;;;;;;;5093289;27;45277;-74
2022/10/18 12:52:04;;;;;;;;;3.00;2.00;;;;;;;;5090168;27;46521;-74
2022/10/18 12:54:35;;;;;;;;;3.25;2.00;;;;;;;;5035587;27;45804;-74
2022/10/18 12:57:01;;;;;;;;;1.00;1.00;;;;;;;;5074199;27;45378;-74
2022/10/18 12:59:26;;;;;;;;;1.75;1.75;;;;;;;;5078716;27;45537;-74
2022/10/18 13:01:51;;;;;;;;;2.00;2.00;;;;;;;;5087136;27;46442;-72
2022/10/18 13:04:26;;;;;;;;;2.75;2.75;;;;;;;;5097028;27;45367;-73
2022/10/18 13:07:14;;;;;;;;;3.75;2.50;;;;;;;;5071932;27;45475;-74
2022/10/18 13:09:41;;;;;;;;;7.75;6.50;;;;;;;;5054246;28;46670;-74
2022/10/18 13:12:09;;;;;;;;;3.75;2.75;;;;;;;;5088353;27;45466;-74
2022/10/18 13:14:53;;;;;;;;;2.50;2.50;;;;;;;;5095985;27;45391;-75
2022/10/18 13:17:37;;;;;;;;;5.00;3.25;;;;;;;;5087002;27;45584;-74
2022/10/18 13:20:23;;;;;;;;;1.50;1.50;;;;;;;;5081472;27;45493;-74
2022/10/18 13:22:51;;;;;;;;;2.75;2.75;;;;;;;;5084495;27;46811;-74
2022/10/18 13:25:28;;;;;;;;;3.00;3.00;;;;;;;;5085745;27;45442;-74
2022/10/18 13:28:04;;;;;;;;;2.25;2.25;;;;;;;;5075995;27;45556;-74
2022/10/18 13:30:46;;;;;;;;;2.50;2.50;;;;;;;;5083510;27;45360;-74
2022/10/18 13:33:14;;;;;;;;;3.00;3.00;;;;;;;;5095598;27;45271;-74
2022/10/18 13:35:58;;;;;;;;;3.50;2.00;;;;;;;;5094710;27;45542;-74
2022/10/18 13:38:33;;;;;;;;;3.25;3.25;;;;;;;;5086183;27;45299;-74
2022/10/18 13:41:01;;;;;;;;;2.00;2.00;;;;;;;;5087189;27;45503;-74
2022/10/18 13:43:44;;;;;;;;;4.00;3.00;;;;;;;;5092054;27;45359;-74
2022/10/18 13:46:09;;;;;;;;;3.75;3.75;;;;;;;;5089620;27;45615;-74
2022/10/18 13:48:35;;;;;;;;;5.75;3.00;;;;;;;;5070022;27;45731;-74
2022/10/18 13:51:18;;;;;;;;;4.00;3.00;;;;;;;;5092074;27;45509;-74
2022/10/18 13:53:51;;;;;;;;;5.50;4.50;;;;;;;;5085025;27;45504;-74
2022/10/18 13:56:19;;;;;;;;;3.50;3.50;;;;;;;;5079330;27;45524;-74
2022/10/18 13:58:55;;;;;;;;;3.25;3.25;;;;;;;;5083895;27;45307;-73
2022/10/18 14:01:20;;;;;;;;;3.00;3.00;;;;;;;;5076926;27;45465;-73
2022/10/18 14:04:02;;;;;;;;;4.00;3.00;;;;;;;;5094475;27;45371;-72
2022/10/18 14:06:33;;;;;;;;;3.00;3.00;;;;;;;;5096646;27;45448;-72
2022/10/18 14:08:58;;;;;;;;;3.75;3.75;;;;;;;;5084393;27;45423;-73
2022/10/18 14:11:29;;;;;;;;;3.75;3.75;;;;;;;;5078015;27;46556;-72
2022/10/18 14:13:56;;;;;;;;;2.00;2.00;;;;;;;;5073798;27;47906;-72
2022/10/18 14:16:37;;;;;;;;;4.00;3.50;;;;;;;;5085284;27;45335;-72
2022/10/18 14:19:21;;;;;;;;;3.00;3.00;;;;;;;;5081309;27;45300;-72
2022/10/18 14:21:49;;;;;;;;;3.25;3.25;;;;;;;;5087955;27;45543;-72
2022/10/18 14:24:25;;;;;;;;;1.50;1.50;;;;;;;;5097330;27;45197;-72
2022/10/18 14:27:11;;;;;;;;;4.50;3.50;;;;;;;;5086538;27;45427;-72
2022/10/18 14:29:37;;;;;;;;;5.00;4.00;;;;;;;;5085940;27;45473;-72
2022/10/18 14:32:06;;;;;;;;;4.00;3.00;;;;;;;;5087119;27;45450;-72